Time;durP1;ratioP1;P1;durP2;ratioP2;P2;SDS_P1;SDS_P2;PMS_P1;PMS_P2;Temp;Humidity;BMP_temperature;BMP_pressure;BME280_temperature;BME280_humidity;BME280_pressure;Samples;Min_cycle;Max_cycle;Signal;HPM_P1;HPM_P2
2024/02/22 00:02:17;;;;;;;5.63;4.43;;;11.30;99.90;;;;;;5056171;28;20025;-79
2024/02/22 00:04:43;;;;;;;5.70;3.88;;;11.40;99.90;;;;;;5058123;28;20032;-81
2024/02/22 00:07:10;;;;;;;6.15;3.17;;;11.30;99.90;;;;;;5058618;28;20402;-81
2024/02/22 00:09:36;;;;;;;4.63;3.47;;;11.30;99.90;;;;;;5052850;28;20035;-81
2024/02/22 00:12:03;;;;;;;3.65;3.35;;;11.40;99.90;;;;;;5059766;28;20029;-78
2024/02/22 00:14:28;;;;;;;3.80;3.45;;;11.40;99.90;;;;;;5055543;28;20078;-81
2024/02/22 00:16:54;;;;;;;5.22;4.15;;;11.40;99.90;;;;;;5057939;28;20033;-81
2024/02/22 00:19:20;;;;;;;4.30;3.97;;;11.40;99.90;;;;;;5053323;28;20074;-79
2024/02/22 00:21:46;;;;;;;4.95;4.18;;;11.30;99.90;;;;;;5055656;28;20025;-79
2024/02/22 00:24:11;;;;;;;9.55;8.65;;;11.40;99.90;;;;;;5062509;28;20115;-75
2024/02/22 00:26:37;;;;;;;5.90;4.30;;;11.50;99.90;;;;;;5057131;28;20032;-80
2024/02/22 00:29:02;;;;;;;4.93;4.30;;;11.50;99.90;;;;;;5056350;28;20059;-80
2024/02/22 00:31:28;;;;;;;5.40;4.20;;;11.50;99.90;;;;;;5057671;28;20062;-80
2024/02/22 00:33:54;;;;;;;6.75;4.20;;;11.40;99.90;;;;;;5058078;28;20489;-77
2024/02/22 00:36:20;;;;;;;5.10;4.38;;;11.50;99.90;;;;;;5057758;28;20074;-76
2024/02/22 00:38:46;;;;;;;5.25;4.75;;;11.40;99.90;;;;;;5052923;28;20382;-76
2024/02/22 00:41:11;;;;;;;7.20;5.30;;;11.40;99.90;;;;;;5055187;28;20416;-76
2024/02/22 00:43:37;;;;;;;5.97;5.00;;;11.50;99.90;;;;;;5057192;28;21184;-76
2024/02/22 00:46:03;;;;;;;5.72;5.22;;;11.50;99.90;;;;;;5058489;28;20114;-76
2024/02/22 00:48:29;;;;;;;6.10;5.50;;;11.50;99.90;;;;;;5052685;28;20389;-76
2024/02/22 00:50:54;;;;;;;6.20;5.60;;;11.50;99.90;;;;;;5053898;28;20029;-75
2024/02/22 00:53:20;;;;;;;6.03;5.45;;;11.50;99.90;;;;;;5055933;28;20112;-76
2024/02/22 00:55:46;;;;;;;5.60;5.13;;;11.50;99.90;;;;;;5055524;28;20024;-76
2024/02/22 00:58:11;;;;;;;6.63;5.93;;;11.60;99.90;;;;;;5055551;28;20359;-72
2024/02/22 01:00:37;;;;;;;8.55;7.43;;;11.50;99.90;;;;;;5051306;28;20078;-76
2024/02/22 01:03:06;;;;;;;5.97;5.38;;;11.60;99.90;;;;;;5052509;28;20111;-76
2024/02/22 01:05:31;;;;;;;7.03;6.38;;;11.60;99.90;;;;;;5056025;28;20024;-76
2024/02/22 01:07:57;;;;;;;6.53;5.93;;;11.60;99.90;;;;;;5057406;28;20019;-74
2024/02/22 01:10:23;;;;;;;8.38;6.15;;;11.60;99.90;;;;;;5056627;28;21382;-76
2024/02/22 01:12:49;;;;;;;6.60;6.00;;;11.60;99.90;;;;;;5059271;28;20024;-76
2024/02/22 01:15:14;;;;;;;7.10;6.22;;;11.60;99.90;;;;;;5051245;28;20078;-76
2024/02/22 01:17:40;;;;;;;6.90;6.30;;;11.60;99.90;;;;;;5061095;28;20029;-77
2024/02/22 01:20:06;;;;;;;6.85;6.22;;;11.60;99.90;;;;;;5055670;28;20107;-75
2024/02/22 01:22:32;;;;;;;7.30;6.60;;;11.60;99.90;;;;;;5057586;28;20025;-77
2024/02/22 01:24:58;;;;;;;7.75;6.75;;;11.60;99.90;;;;;;5056935;28;20072;-78
2024/02/22 01:27:23;;;;;;;5.97;5.38;;;11.60;99.90;;;;;;5059432;28;20062;-76
2024/02/22 01:29:49;;;;;;;7.95;6.25;;;11.70;99.90;;;;;;5058885;28;20029;-76
2024/02/22 01:32:15;;;;;;;8.32;6.93;;;11.70;99.90;;;;;;5055820;28;20094;-76
2024/02/22 01:34:41;;;;;;;7.35;6.30;;;11.60;99.90;;;;;;5053990;28;20035;-75
2024/02/22 01:37:07;;;;;;;6.72;6.10;;;11.60;99.90;;;;;;5054992;28;20032;-76
2024/02/22 01:39:34;;;;;;;6.95;5.40;;;11.60;99.90;;;;;;5057105;28;20477;-76
2024/02/22 01:41:59;;;;;;;7.13;6.18;;;11.60;99.90;;;;;;5056873;28;20111;-77
2024/02/22 01:44:29;;;;;;;10.93;6.70;;;11.70;99.90;;;;;;5055471;28;20124;-76
2024/02/22 01:46:55;;;;;;;9.25;6.63;;;11.60;99.90;;;;;;5057891;28;20375;-76
2024/02/22 01:49:25;;;;;;;9.30;8.35;;;11.70;99.90;;;;;;5044086;28;20025;-76
2024/02/22 01:51:58;;;;;;;7.43;6.57;;;11.70;99.90;;;;;;5046113;28;20017;-76
2024/02/22 01:54:25;;;;;;;7.90;7.10;;;11.60;99.90;;;;;;5043482;28;20052;-76
2024/02/22 01:56:51;;;;;;;8.95;7.80;;;11.70;99.90;;;;;;5049424;28;20025;-76
2024/02/22 01:59:17;;;;;;;10.23;8.15;;;11.80;99.90;;;;;;5037385;28;20398;-76
2024/02/22 02:01:43;;;;;;;10.20;7.65;;;11.80;99.90;;;;;;5040347;28;20021;-76
2024/02/22 02:04:12;;;;;;;10.05;7.75;;;11.80;99.90;;;;;;5050627;28;20076;-76
2024/02/22 02:06:38;;;;;;;12.45;8.55;;;11.80;99.90;;;;;;5055411;28;20104;-76
2024/02/22 02:09:04;;;;;;;9.13;7.95;;;11.80;99.90;;;;;;5052663;28;20037;-77
2024/02/22 02:11:32;;;;;;;11.95;8.60;;;11.80;99.90;;;;;;5055026;28;20017;-76
2024/02/22 02:13:57;;;;;;;12.77;8.52;;;11.90;99.90;;;;;;5054728;28;20104;-76
2024/02/22 02:16:24;;;;;;;11.63;8.57;;;11.90;99.90;;;;;;5049998;28;20443;-77
2024/02/22 02:18:49;;;;;;;12.55;9.68;;;11.90;99.90;;;;;;5036184;28;20112;-77
2024/02/22 02:21:28;;;;;;;11.95;9.82;;;11.90;99.90;;;;;;5046564;28;20103;-77
2024/02/22 02:24:08;;;;;;;11.57;8.73;;;11.90;99.90;;;;;;5053731;28;20417;-78
2024/02/22 02:26:35;;;;;;;11.95;9.32;;;11.90;99.90;;;;;;5054737;28;20025;-76
2024/02/22 02:29:00;;;;;;;11.18;9.15;;;12.00;99.90;;;;;;5053658;28;20025;-76
2024/02/22 02:31:28;;;;;;;15.93;9.80;;;11.90;99.90;;;;;;5053061;28;20036;-76
2024/02/22 02:33:53;;;;;;;14.13;10.88;;;11.90;99.90;;;;;;5034833;28;20493;-77
2024/02/22 02:36:19;;;;;;;15.05;10.60;;;12.00;99.90;;;;;;5046952;28;20119;-76
2024/02/22 02:38:45;;;;;;;14.40;10.02;;;12.00;99.90;;;;;;5046529;28;20025;-76
2024/02/22 02:41:10;;;;;;;14.23;10.18;;;12.10;99.90;;;;;;5048292;28;20021;-76
2024/02/22 02:43:36;;;;;;;16.67;9.75;;;12.10;99.90;;;;;;5054528;28;20115;-76
2024/02/22 02:46:02;;;;;;;14.23;10.55;;;12.10;99.90;;;;;;5052997;28;20403;-77
2024/02/22 02:48:27;;;;;;;14.55;10.18;;;12.10;99.90;;;;;;5033815;28;20035;-78
2024/02/22 02:50:54;;;;;;;15.68;10.43;;;12.10;99.90;;;;;;5033452;28;20056;-78
2024/02/22 02:53:21;;;;;;;13.65;9.05;;;12.10;99.90;;;;;;5043587;28;20529;-77
2024/02/22 02:55:47;;;;;;;15.27;10.43;;;12.10;99.90;;;;;;5054208;28;20044;-76
2024/02/22 02:58:13;;;;;;;17.35;9.95;;;12.10;99.90;;;;;;5054295;28;20466;-77
2024/02/22 03:00:39;;;;;;;14.98;9.60;;;12.10;99.90;;;;;;5053312;28;20025;-77
2024/02/22 03:03:04;;;;;;;14.88;9.68;;;12.10;99.90;;;;;;5053830;28;20059;-78
2024/02/22 03:05:30;;;;;;;13.93;9.10;;;12.10;99.90;;;;;;5053993;28;20462;-78
2024/02/22 03:07:56;;;;;;;16.52;10.77;;;12.10;99.90;;;;;;5053653;28;20025;-79
2024/02/22 03:10:22;;;;;;;14.73;9.90;;;12.10;99.90;;;;;;5049546;28;20045;-79
2024/02/22 03:12:48;;;;;;;12.48;9.35;;;12.10;99.90;;;;;;5043687;28;20031;-80
2024/02/22 03:15:13;;;;;;;13.35;9.27;;;12.10;99.90;;;;;;5053233;28;20099;-80
2024/02/22 03:17:39;;;;;;;13.70;9.38;;;12.10;99.90;;;;;;5053864;28;20508;-81
2024/02/22 03:20:10;;;;;;;13.10;9.35;;;12.10;99.90;;;;;;5039067;28;20378;-81
2024/02/22 03:22:36;;;;;;;12.65;10.10;;;12.10;99.90;;;;;;5043643;28;20025;-79
2024/02/22 03:25:02;;;;;;;20.98;10.27;;;12.20;99.90;;;;;;5032781;28;20045;-80
2024/02/22 03:27:28;;;;;;;14.38;10.38;;;12.10;99.90;;;;;;5032947;28;20057;-80
2024/02/22 03:29:53;;;;;;;16.40;10.45;;;12.20;99.90;;;;;;5037109;28;20021;-80
2024/02/22 03:32:19;;;;;;;14.65;10.32;;;12.20;99.90;;;;;;5053939;28;20124;-80
2024/02/22 03:34:44;;;;;;;19.50;11.15;;;12.20;99.90;;;;;;5039926;28;20031;-80
2024/02/22 03:37:12;;;;;;;15.55;10.32;;;12.20;99.90;;;;;;5043180;28;20396;-80
2024/02/22 03:39:39;;;;;;;17.05;11.55;;;12.30;99.90;;;;;;5036726;28;20017;-79
2024/02/22 03:42:04;;;;;;;17.83;10.00;;;12.20;99.90;;;;;;5053862;28;20060;-79
2024/02/22 03:44:30;;;;;;;16.23;10.90;;;12.30;99.90;;;;;;5053260;28;20071;-78
2024/02/22 03:46:56;;;;;;;14.90;10.48;;;12.30;99.90;;;;;;5053101;28;20021;-80
2024/02/22 03:49:21;;;;;;;19.30;10.48;;;12.30;99.90;;;;;;5051948;28;20021;-80
2024/02/22 03:51:47;;;;;;;15.60;10.57;;;12.30;99.90;;;;;;5052470;28;20044;-80
2024/02/22 03:54:13;;;;;;;16.80;10.75;;;12.40;99.90;;;;;;5036471;28;20104;-81
2024/02/22 03:56:39;;;;;;;15.75;10.43;;;12.40;99.90;;;;;;5043588;28;20028;-81
2024/02/22 03:59:06;;;;;;;21.50;11.68;;;12.40;99.90;;;;;;5053006;28;20033;-81
2024/02/22 04:01:32;;;;;;;16.55;10.18;;;12.30;99.90;;;;;;5052257;28;20020;-81
2024/02/22 04:03:58;;;;;;;15.57;10.52;;;12.40;99.90;;;;;;5049583;28;20395;-81
2024/02/22 04:06:24;;;;;;;20.58;11.05;;;12.30;99.90;;;;;;5033583;28;20029;-81
2024/02/22 04:08:51;;;;;;;13.85;9.85;;;12.30;99.90;;;;;;5047506;28;20021;-81
2024/02/22 04:11:17;;;;;;;19.80;12.45;;;12.30;99.90;;;;;;5051850;28;20036;-80
2024/02/22 04:13:43;;;;;;;18.58;13.18;;;12.40;99.90;;;;;;5052012;28;20017;-82
2024/02/22 04:16:08;;;;;;;18.92;11.88;;;12.40;99.90;;;;;;5052803;28;20087;-81
2024/02/22 04:18:36;;;;;;;19.85;12.30;;;12.30;99.90;;;;;;5052487;28;20717;-82
2024/02/22 04:21:01;;;;;;;16.45;11.98;;;12.30;99.90;;;;;;5052844;28;20458;-82
2024/02/22 04:23:27;;;;;;;15.80;10.77;;;12.30;99.90;;;;;;5046487;28;20095;-81
2024/02/22 04:25:54;;;;;;;16.42;9.75;;;12.20;99.90;;;;;;5052338;28;20426;-81
2024/02/22 04:28:20;;;;;;;16.45;11.80;;;12.30;99.90;;;;;;5051019;28;20492;-82
2024/02/22 04:30:46;;;;;;;19.83;12.15;;;12.20;99.90;;;;;;5052719;28;20442;-81
2024/02/22 04:33:15;;;;;;;14.10;10.88;;;12.20;99.90;;;;;;5052612;28;20068;-82
2024/02/22 04:35:45;;;;;;;17.98;11.32;;;12.20;99.90;;;;;;5052718;28;20446;-81
2024/02/22 04:38:11;;;;;;;16.77;11.05;;;12.20;99.90;;;;;;5051728;28;20116;-82
2024/02/22 04:40:37;;;;;;;18.67;10.85;;;12.10;99.90;;;;;;5052896;28;20060;-82
2024/02/22 04:43:04;;;;;;;15.13;10.65;;;12.10;99.90;;;;;;5052146;28;20036;-81
2024/02/22 04:45:30;;;;;;;14.85;10.10;;;12.10;99.90;;;;;;5052634;28;20040;-81
2024/02/22 04:47:57;;;;;;;16.05;10.77;;;12.10;99.90;;;;;;5052035;28;20057;-81
2024/02/22 04:50:22;;;;;;;16.02;11.48;;;12.10;99.90;;;;;;5052773;28;20032;-79
2024/02/22 04:52:48;;;;;;;16.80;10.80;;;12.10;99.90;;;;;;5052434;28;20021;-81
2024/02/22 04:55:14;;;;;;;15.60;10.93;;;12.10;99.90;;;;;;5051142;28;20386;-82
2024/02/22 04:57:39;;;;;;;19.02;11.10;;;12.10;99.90;;;;;;5049739;28;20029;-82
2024/02/22 05:00:08;;;;;;;14.00;10.45;;;12.10;99.90;;;;;;5052565;28;20032;-82
2024/02/22 05:02:34;;;;;;;13.95;11.75;;;12.10;99.90;;;;;;5050954;28;20394;-82
2024/02/22 05:04:59;;;;;;;16.27;10.70;;;12.10;99.90;;;;;;5051084;28;20028;-82
2024/02/22 05:07:25;;;;;;;11.55;9.57;;;12.10;99.90;;;;;;5051036;28;20783;-82
2024/02/22 05:09:51;;;;;;;14.15;9.50;;;12.10;99.90;;;;;;5052263;28;20060;-82
2024/02/22 05:12:16;;;;;;;11.13;9.32;;;12.10;99.90;;;;;;5050610;28;20013;-82
2024/02/22 05:14:45;;;;;;;12.13;9.43;;;12.10;99.90;;;;;;5052461;28;20029;-82
2024/02/22 05:17:12;;;;;;;12.07;9.40;;;12.10;99.90;;;;;;5050382;28;20029;-82
2024/02/22 05:19:38;;;;;;;16.15;10.18;;;12.00;99.90;;;;;;5050544;28;20013;-82
2024/02/22 05:22:04;;;;;;;10.85;9.00;;;12.00;99.90;;;;;;5051456;28;20032;-81
2024/02/22 05:24:31;;;;;;;14.25;9.98;;;12.10;99.90;;;;;;5052256;28;20029;-81
2024/02/22 05:26:58;;;;;;;18.58;9.00;;;12.10;99.90;;;;;;5051607;28;20470;-82
2024/02/22 05:29:23;;;;;;;12.18;8.70;;;12.10;99.90;;;;;;5052202;28;20025;-81
2024/02/22 05:31:49;;;;;;;13.52;9.80;;;12.00;99.90;;;;;;5052068;28;20616;-81
2024/02/22 05:34:15;;;;;;;12.50;8.30;;;12.10;99.90;;;;;;5051699;28;20028;-81
2024/02/22 05:36:40;;;;;;;11.90;8.95;;;12.10;99.90;;;;;;5055149;28;20025;-81
2024/02/22 05:39:07;;;;;;;12.38;9.13;;;12.00;99.90;;;;;;5055763;28;20036;-81
2024/02/22 05:41:36;;;;;;;9.98;7.72;;;12.10;99.90;;;;;;5055703;28;20096;-81
2024/02/22 05:44:03;;;;;;;10.82;8.57;;;12.00;99.90;;;;;;5055938;28;20029;-81
2024/02/22 05:46:29;;;;;;;11.15;8.50;;;12.00;99.90;;;;;;5056115;28;20036;-81
2024/02/22 05:48:54;;;;;;;9.73;7.63;;;12.00;99.90;;;;;;5055974;28;20033;-81
2024/02/22 05:51:20;;;;;;;10.85;8.38;;;12.00;99.90;;;;;;5055192;28;20393;-81
2024/02/22 05:53:46;;;;;;;14.25;9.10;;;12.00;99.90;;;;;;5055459;28;20041;-81
2024/02/22 05:56:13;;;;;;;10.27;8.23;;;12.00;99.90;;;;;;5055732;28;20017;-81
2024/02/22 05:58:39;;;;;;;9.95;7.95;;;12.10;99.90;;;;;;5055710;28;20029;-82
2024/02/22 06:01:05;;;;;;;13.65;9.30;;;12.00;99.90;;;;;;5055197;28;20047;-82
2024/02/22 06:03:31;;;;;;;11.80;8.65;;;12.00;99.90;;;;;;5055571;28;20044;-81
2024/02/22 06:05:57;;;;;;;12.05;8.35;;;12.00;99.90;;;;;;5054217;28;20021;-82
2024/02/22 06:08:23;;;;;;;10.60;7.72;;;12.00;99.90;;;;;;5053891;28;20125;-81
2024/02/22 06:10:49;;;;;;;12.52;8.65;;;12.00;99.90;;;;;;5055170;28;20025;-81
2024/02/22 06:13:16;;;;;;;13.80;8.30;;;12.00;99.90;;;;;;5055424;28;20025;-80
2024/02/22 06:15:42;;;;;;;8.65;7.15;;;11.90;99.90;;;;;;5055507;28;20091;-81
2024/02/22 06:18:07;;;;;;;10.25;7.85;;;12.00;99.90;;;;;;5055457;28;20013;-81
2024/02/22 06:20:33;;;;;;;12.40;9.60;;;11.90;99.90;;;;;;5054570;28;20098;-82
2024/02/22 06:22:59;;;;;;;9.43;8.10;;;11.90;99.90;;;;;;5055176;28;20033;-82
2024/02/22 06:25:26;;;;;;;12.75;8.68;;;11.90;99.90;;;;;;5055262;28;20032;-82
2024/02/22 06:27:51;;;;;;;9.68;8.38;;;11.90;99.90;;;;;;5054783;28;20032;-82
2024/02/22 06:30:17;;;;;;;10.95;8.65;;;11.90;99.90;;;;;;5054919;28;20092;-82
2024/02/22 06:32:43;;;;;;;12.27;8.90;;;12.00;99.90;;;;;;5054268;28;20094;-82
2024/02/22 06:35:09;;;;;;;8.63;7.65;;;12.10;99.90;;;;;;5055084;28;20472;-82
2024/02/22 06:37:35;;;;;;;10.38;8.07;;;12.10;99.90;;;;;;5053049;28;20021;-82
2024/02/22 06:40:02;;;;;;;10.70;7.20;;;12.10;99.90;;;;;;5054587;28;20359;-80
2024/02/22 06:42:28;;;;;;;9.50;8.13;;;12.00;99.90;;;;;;5054671;28;20028;-82
2024/02/22 06:44:55;;;;;;;9.35;7.82;;;12.10;99.90;;;;;;5054864;28;20029;-82
2024/02/22 06:47:20;;;;;;;10.70;8.73;;;12.10;99.90;;;;;;5053239;28;20092;-82
2024/02/22 06:49:46;;;;;;;10.88;8.82;;;12.10;99.90;;;;;;5053608;28;20025;-82
2024/02/22 06:52:11;;;;;;;10.55;8.48;;;12.10;99.90;;;;;;5054459;28;20079;-82
2024/02/22 06:54:37;;;;;;;9.40;7.90;;;12.10;99.90;;;;;;5054724;28;20102;-82
2024/02/22 06:57:05;;;;;;;13.25;8.43;;;12.10;99.90;;;;;;5054297;28;20025;-82
2024/02/22 06:59:32;;;;;;;10.02;8.63;;;12.10;99.90;;;;;;5054618;28;20039;-82
2024/02/22 07:01:57;;;;;;;11.00;9.43;;;12.10;99.90;;;;;;5038930;28;20441;-83
2024/02/22 07:04:23;;;;;;;10.02;9.02;;;12.10;99.90;;;;;;5034705;28;20033;-83
2024/02/22 07:06:49;;;;;;;11.07;9.90;;;12.10;99.90;;;;;;5046589;28;20067;-82
2024/02/22 07:09:14;;;;;;;10.60;8.48;;;12.00;99.90;;;;;;5039748;28;20475;-81
2024/02/22 07:11:40;;;;;;;8.18;7.18;;;12.00;99.90;;;;;;5041524;28;20079;-81
2024/02/22 07:14:06;;;;;;;8.38;7.50;;;12.10;99.90;;;;;;5053758;28;20029;-82
2024/02/22 07:16:32;;;;;;;7.40;6.65;;;12.00;99.90;;;;;;5053613;28;20508;-80
2024/02/22 07:18:58;;;;;;;7.03;6.32;;;12.00;99.90;;;;;;5054006;28;20112;-82
2024/02/22 07:21:30;;;;;;;7.32;6.63;;;12.00;99.90;;;;;;5051777;28;20440;-81
2024/02/22 07:23:56;;;;;;;11.13;6.88;;;12.00;99.90;;;;;;5038336;28;20029;-80
2024/02/22 07:26:22;;;;;;;8.85;7.18;;;12.10;99.90;;;;;;5034296;28;20527;-76
2024/02/22 07:28:47;;;;;;;8.15;6.03;;;12.10;99.90;;;;;;5044262;28;20028;-79
2024/02/22 07:31:13;;;;;;;5.82;5.32;;;12.00;99.90;;;;;;5034718;28;20113;-79
2024/02/22 07:33:39;;;;;;;6.03;5.10;;;12.10;99.90;;;;;;5045688;28;20505;-78
2024/02/22 07:36:05;;;;;;;4.90;4.50;;;12.10;99.90;;;;;;5046230;28;20668;-79
2024/02/22 07:38:31;;;;;;;5.15;4.60;;;12.10;99.90;;;;;;5053835;28;20025;-79
2024/02/22 07:40:57;;;;;;;4.50;4.18;;;12.10;99.90;;;;;;5052171;28;20612;-80
2024/02/22 07:43:23;;;;;;;4.35;3.95;;;12.10;99.90;;;;;;5034320;28;20033;-81
2024/02/22 07:45:49;;;;;;;4.05;3.75;;;12.00;99.90;;;;;;5046773;28;20021;-82
2024/02/22 07:48:16;;;;;;;4.07;3.67;;;12.10;99.90;;;;;;5052919;28;20503;-80
2024/02/22 07:50:41;;;;;;;3.90;3.60;;;12.10;99.90;;;;;;5052584;28;20028;-79
2024/02/22 07:53:07;;;;;;;4.38;4.00;;;12.10;99.90;;;;;;5041931;28;20119;-81
2024/02/22 07:55:33;;;;;;;3.90;3.60;;;12.10;99.90;;;;;;5051849;28;20029;-80
2024/02/22 07:57:59;;;;;;;3.67;3.38;;;12.10;99.90;;;;;;5047516;28;20012;-82
2024/02/22 08:00:26;;;;;;;3.58;3.28;;;12.10;99.90;;;;;;5046332;28;20033;-81
2024/02/22 08:02:52;;;;;;;3.78;3.47;;;12.10;99.90;;;;;;5043975;28;20029;-81
2024/02/22 08:05:18;;;;;;;3.40;3.10;;;12.10;99.90;;;;;;5046086;28;20086;-81
2024/02/22 08:07:43;;;;;;;3.05;2.75;;;12.10;99.90;;;;;;5052336;28;20114;-81
2024/02/22 08:10:09;;;;;;;3.75;3.45;;;12.20;99.90;;;;;;5044076;28;20026;-83
2024/02/22 08:12:35;;;;;;;3.88;3.58;;;12.10;99.90;;;;;;5046680;28;20021;-86
2024/02/22 08:15:04;;;;;;;4.35;4.00;;;12.20;99.90;;;;;;5047483;28;20481;-82
2024/02/22 08:17:31;;;;;;;3.55;3.25;;;12.20;99.90;;;;;;5040884;28;20025;-81
2024/02/22 08:19:57;;;;;;;4.07;3.78;;;12.10;99.90;;;;;;5044064;28;20096;-81
2024/02/22 08:22:23;;;;;;;4.15;3.75;;;12.10;99.90;;;;;;5041077;28;20113;-81
2024/02/22 08:24:49;;;;;;;4.13;3.83;;;12.10;99.90;;;;;;5051054;28;20177;-81
2024/02/22 08:27:14;;;;;;;4.35;3.50;;;12.30;99.90;;;;;;5047131;28;20032;-80
2024/02/22 08:29:40;;;;;;;4.00;3.65;;;12.30;99.90;;;;;;5035831;28;20025;-83
2024/02/22 08:32:07;;;;;;;2.83;2.63;;;12.20;99.90;;;;;;5040358;28;20116;-81
2024/02/22 08:34:33;;;;;;;2.20;2.10;;;12.00;99.90;;;;;;5046555;28;20021;-82
2024/02/22 08:36:58;;;;;;;2.63;2.50;;;12.00;99.90;;;;;;5051670;28;20470;-81
2024/02/22 08:39:24;;;;;;;4.15;2.85;;;12.10;99.90;;;;;;5052331;28;20017;-83
2024/02/22 08:41:50;;;;;;;2.90;2.70;;;12.10;99.90;;;;;;5052348;28;20497;-81
2024/02/22 08:44:15;;;;;;;2.42;2.25;;;12.10;99.90;;;;;;5052160;28;20138;-82
2024/02/22 08:46:41;;;;;;;2.03;1.92;;;12.10;99.90;;;;;;5051735;28;20493;-82
2024/02/22 08:49:06;;;;;;;1.77;1.67;;;12.20;99.90;;;;;;5051405;28;20377;-82
2024/02/22 08:51:32;;;;;;;1.92;1.83;;;12.20;99.90;;;;;;5044999;28;20028;-81
2024/02/22 08:53:59;;;;;;;1.67;1.58;;;12.20;99.90;;;;;;5049908;28;20472;-81
2024/02/22 08:56:25;;;;;;;1.90;1.80;;;12.20;99.90;;;;;;5048042;28;20032;-81
2024/02/22 08:58:52;;;;;;;2.95;2.03;;;12.20;99.90;;;;;;5045609;28;20323;-82
2024/02/22 09:01:20;;;;;;;2.10;1.98;;;12.30;99.90;;;;;;5052580;28;20029;-82
2024/02/22 09:03:46;;;;;;;2.22;2.03;;;12.30;99.90;;;;;;5051420;28;20041;-82
2024/02/22 09:06:12;;;;;;;2.22;2.03;;;12.40;99.90;;;;;;5052007;28;20525;-80
2024/02/22 09:08:40;;;;;;;1.90;1.80;;;12.40;99.90;;;;;;5050942;28;20029;-81
2024/02/22 09:11:06;;;;;;;2.10;2.00;;;12.40;99.90;;;;;;5031686;28;20402;-81
2024/02/22 09:13:31;;;;;;;2.92;2.35;;;12.40;99.90;;;;;;5040466;28;20024;-81
2024/02/22 09:15:57;;;;;;;2.85;2.63;;;12.30;99.90;;;;;;5039095;28;20474;-82
2024/02/22 09:18:23;;;;;;;2.10;2.00;;;12.30;99.90;;;;;;5046523;28;20104;-81
2024/02/22 09:20:49;;;;;;;1.85;1.75;;;12.40;99.90;;;;;;5038405;28;20363;-81
2024/02/22 09:23:15;;;;;;;3.42;1.92;;;12.30;99.90;;;;;;5036569;28;20029;-81
2024/02/22 09:25:42;;;;;;;1.48;1.38;;;12.30;99.90;;;;;;5051652;28;20049;-82
2024/02/22 09:28:08;;;;;;;1.55;1.45;;;12.30;99.90;;;;;;5050429;28;20025;-81
2024/02/22 09:30:35;;;;;;;1.50;1.40;;;12.40;99.90;;;;;;5048402;28;20021;-81
2024/02/22 09:33:02;;;;;;;1.25;1.13;;;12.50;99.90;;;;;;5041408;28;20025;-82
2024/02/22 09:35:28;;;;;;;2.50;1.50;;;12.50;99.90;;;;;;5047775;28;20477;-86
2024/02/22 09:37:53;;;;;;;1.55;1.35;;;12.60;99.90;;;;;;5042346;28;20047;-83
2024/02/22 09:40:21;;;;;;;2.38;1.42;;;12.60;99.90;;;;;;5051488;28;20040;-83
2024/02/22 09:42:48;;;;;;;1.65;1.30;;;12.70;99.90;;;;;;5051954;28;20024;-82
2024/02/22 09:45:14;;;;;;;2.72;1.52;;;12.80;99.90;;;;;;5051101;28;20099;-82
2024/02/22 09:47:41;;;;;;;2.47;1.50;;;12.90;99.90;;;;;;5050664;28;20385;-81
2024/02/22 09:50:09;;;;;;;1.42;1.20;;;12.90;99.90;;;;;;5049909;28;20036;-82
2024/02/22 09:52:36;;;;;;;1.55;1.10;;;12.90;99.90;;;;;;5045845;28;20017;-81
2024/02/22 09:55:03;;;;;;;1.42;1.10;;;12.90;99.90;;;;;;5048559;28;20075;-81
2024/02/22 09:57:29;;;;;;;1.95;1.10;;;12.90;99.90;;;;;;5050533;28;20389;-81
2024/02/22 09:59:55;;;;;;;1.75;1.08;;;13.10;99.90;;;;;;5049057;28;20474;-80
2024/02/22 10:02:22;;;;;;;2.28;0.88;;;13.10;99.90;;;;;;5050083;28;20116;-81
2024/02/22 10:04:59;;;;;;;1.67;0.73;;;13.10;99.90;;;;;;5049035;28;20024;-81
2024/02/22 10:07:25;;;;;;;1.77;0.65;;;13.30;99.90;;;;;;5049374;28;20016;-82
2024/02/22 10:09:53;;;;;;;1.63;0.70;;;13.40;99.90;;;;;;5051266;28;20420;-82
2024/02/22 10:12:43;;;;;;;0.70;0.60;;;13.50;99.90;;;;;;5032818;28;20541;-81
2024/02/22 10:15:25;;;;;;;1.38;0.60;;;13.50;99.90;;;;;;5044972;28;20032;-80
2024/02/22 10:17:51;;;;;;;1.23;0.50;;;13.40;99.90;;;;;;5050688;28;20017;-80
2024/02/22 10:20:18;;;;;;;2.13;0.45;;;13.50;99.90;;;;;;5051865;28;20025;-81
2024/02/22 10:22:46;;;;;;;2.20;0.68;;;13.60;99.90;;;;;;5052556;28;20053;-80
2024/02/22 10:25:16;;;;;;;2.80;0.50;;;13.60;99.90;;;;;;5041141;28;20115;-81
2024/02/22 10:27:48;;;;;;;1.35;0.40;;;13.70;99.90;;;;;;5043116;28;20056;-80
2024/02/22 10:30:14;;;;;;;0.60;0.40;;;13.60;99.90;;;;;;5052938;28;20029;-80
2024/02/22 10:32:41;;;;;;;1.10;0.50;;;13.70;99.90;;;;;;5055373;28;20203;-80
2024/02/22 10:35:08;;;;;;;1.13;0.38;;;13.70;99.90;;;;;;5053322;28;20614;-81
2024/02/22 10:37:36;;;;;;;1.15;0.60;;;13.70;99.90;;;;;;5055142;28;20470;-81
2024/02/22 10:40:04;;;;;;;4.95;0.75;;;13.70;99.90;;;;;;5053808;28;20056;-80
2024/02/22 10:42:30;;;;;;;0.88;0.85;;;13.80;99.90;;;;;;5054941;28;20565;-78
2024/02/22 10:44:56;;;;;;;0.55;0.50;;;13.70;99.90;;;;;;5046879;28;20037;-80
2024/02/22 10:47:23;;;;;;;0.50;0.50;;;13.80;99.90;;;;;;5034816;28;20024;-80
2024/02/22 10:49:50;;;;;;;0.50;0.50;;;13.80;99.90;;;;;;5040865;28;20050;-80
2024/02/22 10:52:18;;;;;;;1.17;0.65;;;13.70;99.90;;;;;;5054698;28;20029;-80
2024/02/22 10:54:47;;;;;;;0.77;0.73;;;13.70;99.90;;;;;;5054847;28;20021;-81
2024/02/22 10:57:14;;;;;;;0.65;0.65;;;13.80;99.90;;;;;;5053953;28;20070;-80
2024/02/22 10:59:41;;;;;;;0.55;0.30;;;13.80;99.90;;;;;;5052755;28;20522;-83
2024/02/22 11:02:08;;;;;;;1.63;0.55;;;13.70;99.90;;;;;;5052953;28;20034;-80
2024/02/22 11:04:34;;;;;;;0.98;0.30;;;13.70;99.90;;;;;;5041217;28;20044;-79
2024/02/22 11:07:06;;;;;;;0.55;0.40;;;13.80;99.90;;;;;;5012554;28;20032;-79
2024/02/22 11:09:39;;;;;;;0.90;0.50;;;13.90;99.90;;;;;;5058569;28;20020;-80
2024/02/22 11:12:07;;;;;;;0.80;0.50;;;13.90;99.90;;;;;;5061217;28;20050;-80
2024/02/22 11:14:36;;;;;;;1.42;0.40;;;13.90;99.90;;;;;;5060358;28;20017;-80
2024/02/22 11:17:05;;;;;;;0.65;0.32;;;14.00;99.90;;;;;;5053373;28;20029;-83
2024/02/22 11:19:31;;;;;;;0.82;0.60;;;14.00;99.90;;;;;;5050818;28;20031;-82
2024/02/22 11:21:57;;;;;;;0.47;0.40;;;13.90;99.90;;;;;;5046255;28;20029;-84
2024/02/22 11:24:25;;;;;;;1.00;1.00;;;13.90;99.90;;;;;;5057554;28;20477;-80
2024/02/22 11:26:52;;;;;;;0.95;0.85;;;13.90;99.90;;;;;;5051929;28;20021;-78
2024/02/22 11:29:32;;;;;;;1.00;0.90;;;14.00;99.90;;;;;;5059610;28;20066;-77
2024/02/22 11:32:05;;;;;;;0.98;0.68;;;14.00;99.90;;;;;;5055406;28;20036;-77
2024/02/22 11:34:31;;;;;;;;;;;13.80;99.90;;;;;;5055745;28;20036;-79
2024/02/22 11:37:11;;;;;;;0.70;0.70;;;13.80;99.90;;;;;;5061980;28;20326;-79
2024/02/22 11:39:37;;;;;;;1.17;1.10;;;13.80;99.90;;;;;;5057484;28;20386;-83
2024/02/22 11:42:11;;;;;;;3.13;1.08;;;13.90;99.90;;;;;;5058423;28;20032;-81
2024/02/22 11:44:37;;;;;;;1.23;1.10;;;13.90;99.90;;;;;;5053246;28;20028;-77
2024/02/22 11:47:03;;;;;;;2.35;0.80;;;13.90;99.90;;;;;;5060096;28;20229;-77
2024/02/22 11:49:29;;;;;;;0.68;0.68;;;13.70;99.90;;;;;;5056413;28;20086;-83
2024/02/22 11:51:54;;;;;;;0.70;0.60;;;13.80;99.90;;;;;;5057478;28;20025;-84
2024/02/22 11:54:22;;;;;;;0.80;0.80;;;13.80;99.90;;;;;;5057741;28;20134;-82
2024/02/22 11:56:47;;;;;;;0.70;0.63;;;13.90;99.90;;;;;;5057012;28;20426;-80
2024/02/22 11:59:13;;;;;;;0.70;0.60;;;13.90;99.90;;;;;;5055065;28;20025;-81
2024/02/22 12:01:41;;;;;;;0.93;0.60;;;13.90;99.90;;;;;;5056390;28;20410;-82
2024/02/22 12:04:07;;;;;;;1.30;0.50;;;13.90;99.90;;;;;;5052085;28;20057;-83
2024/02/22 12:06:33;;;;;;;1.25;0.90;;;13.90;99.90;;;;;;5059082;28;20518;-87
2024/02/22 12:08:59;;;;;;;0.60;0.57;;;13.90;99.90;;;;;;5057155;28;20023;-87
2024/02/22 12:11:25;;;;;;;2.13;2.03;;;14.00;99.90;;;;;;5058946;28;20024;-85
2024/02/22 12:13:58;;;;;;;0.75;0.63;;;14.00;99.90;;;;;;5059787;28;20039;-84
2024/02/22 12:16:26;;;;;;;1.98;1.35;;;13.90;99.90;;;;;;5056259;28;20373;-84
2024/02/22 12:18:52;;;;;;;0.80;0.60;;;14.00;99.90;;;;;;5057795;28;20389;-84
2024/02/22 12:21:22;;;;;;;1.65;1.00;;;14.00;99.90;;;;;;5056808;28;20033;-83
2024/02/22 12:23:48;;;;;;;0.70;0.60;;;14.00;99.90;;;;;;5051635;28;20470;-80
2024/02/22 12:26:18;;;;;;;2.35;0.80;;;14.10;99.90;;;;;;5055560;28;20024;-83
2024/02/22 12:28:50;;;;;;;0.50;0.50;;;14.10;99.90;;;;;;5052131;28;20027;-84
2024/02/22 12:31:22;;;;;;;1.15;0.52;;;14.10;99.90;;;;;;5057437;28;20056;-83
2024/02/22 12:33:52;;;;;;;1.33;0.40;;;14.20;99.90;;;;;;5053639;28;20017;-80
2024/02/22 12:36:18;;;;;;;0.55;0.40;;;14.30;99.90;;;;;;5055673;28;20062;-83
2024/02/22 12:38:45;;;;;;;0.63;0.45;;;14.30;99.90;;;;;;5055656;28;20016;-82